createdAt,value
2018-04-15T00:02:17.132Z,92.30
2018-04-15T00:07:20.217Z,92.60
2018-04-15T00:12:24.091Z,92.70
2018-04-15T00:17:28.673Z,93.10
2018-04-15T00:22:31.770Z,92.90
2018-04-15T00:27:35.633Z,93.20
2018-04-15T00:32:38.717Z,93.20
2018-04-15T00:37:42.639Z,93.40
2018-04-15T00:42:46.527Z,93.50
2018-04-15T00:47:49.614Z,93.70
2018-04-15T00:52:52.711Z,93.70
2018-04-15T00:57:56.573Z,94.10
2018-04-15T01:02:59.662Z,94.00
2018-04-15T01:08:02.750Z,94.10
2018-04-15T01:13:05.862Z,94.20
2018-04-15T01:18:09.709Z,94.30
2018-04-15T01:23:13.577Z,94.30
2018-04-15T01:28:16.677Z,94.40
2018-04-15T01:33:20.525Z,94.60
2018-04-15T01:38:23.626Z,94.50
2018-04-15T01:48:31.934Z,94.70
2018-04-15T01:53:35.014Z,94.70
2018-04-15T01:58:38.098Z,94.80
2018-04-15T02:03:42.642Z,94.90
2018-04-15T02:08:45.727Z,94.90
2018-04-15T02:18:54.030Z,95.40
2018-04-15T02:23:57.125Z,95.00
2018-04-15T02:29:00.234Z,95.30
2018-04-15T02:34:03.314Z,95.40
2018-04-15T02:39:06.423Z,95.40
2018-04-15T02:44:10.323Z,95.90
2018-04-15T02:49:13.474Z,96.10
2018-04-15T02:54:16.573Z,96.30
2018-04-15T03:04:24.106Z,96.60
2018-04-15T03:09:27.971Z,96.90
2018-04-15T03:14:31.832Z,96.90
2018-04-15T03:19:35.318Z,96.50
2018-04-15T03:24:39.554Z,96.60
2018-04-15T03:29:43.046Z,96.40
2018-04-15T03:39:52.834Z,96.50
2018-04-15T03:44:56.685Z,96.70
2018-04-15T03:49:59.775Z,96.50
2018-04-15T03:55:02.886Z,96.50
2018-04-15T04:00:05.978Z,96.80
2018-04-15T04:05:10.189Z,96.80
2018-04-15T04:10:13.313Z,96.80
2018-04-15T04:20:38.681Z,96.70
2018-04-15T04:25:57.155Z,97.10
2018-04-15T04:31:01.017Z,96.90
2018-04-15T04:36:04.157Z,96.80
2018-04-15T04:41:08.848Z,96.80
2018-04-15T04:46:13.070Z,96.70
2018-04-15T04:51:16.930Z,97.00
2018-04-15T04:56:20.031Z,96.70
2018-04-15T05:01:23.105Z,96.70
2018-04-15T05:06:26.979Z,97.00
2018-04-15T05:11:30.065Z,96.70
2018-04-15T05:16:33.153Z,96.60
2018-04-15T05:21:36.261Z,96.70
2018-04-15T05:26:39.360Z,96.70
2018-04-15T05:31:43.947Z,96.90
2018-04-15T05:36:47.031Z,96.80
2018-04-15T05:41:50.123Z,97.00
2018-04-15T05:46:53.602Z,97.10
2018-04-15T05:51:56.681Z,96.60
2018-04-15T05:57:00.177Z,96.60
2018-04-15T06:02:03.291Z,96.50
2018-04-15T06:07:07.144Z,96.60
2018-04-15T06:12:10.249Z,96.40
2018-04-15T06:17:13.331Z,96.50
2018-04-15T06:22:17.193Z,96.30
2018-04-15T06:27:20.282Z,96.20
2018-04-15T06:32:23.397Z,96.40
2018-04-15T06:37:26.481Z,96.60
2018-04-15T06:42:30.717Z,96.60
2018-04-15T06:47:33.808Z,96.20
2018-04-15T06:57:42.848Z,95.60
2018-04-15T07:02:45.937Z,95.40
2018-04-15T07:07:49.021Z,95.20
2018-04-15T07:17:58.045Z,93.70
2018-04-15T07:23:01.131Z,91.80
2018-04-15T07:28:04.602Z,89.70
2018-04-15T07:33:07.699Z,88.60
2018-04-15T07:38:12.474Z,90.60
2018-04-15T07:43:16.344Z,91.70
2018-04-15T07:53:24.657Z,89.60
2018-04-15T07:58:27.756Z,84.70
2018-04-15T08:08:35.249Z,77.00
2018-04-15T08:13:38.334Z,72.70
2018-04-15T08:18:41.821Z,69.90
2018-04-15T08:23:45.668Z,68.90
2018-04-15T08:28:49.511Z,67.90
2018-04-15T08:38:57.038Z,65.30
2018-04-15T08:49:04.567Z,62.40
2018-04-15T08:54:07.641Z,62.10
2018-04-15T08:59:10.730Z,59.90
2018-04-15T09:04:13.807Z,56.30
2018-04-15T09:09:18.406Z,62.80
2018-04-15T09:14:23.742Z,62.80
2018-04-15T09:19:26.840Z,62.70
2018-04-15T09:24:29.918Z,59.70
2018-04-15T09:29:33.011Z,57.60
2018-04-15T09:34:37.590Z,55.70
2018-04-15T09:39:40.668Z,54.70
2018-04-15T09:44:43.777Z,54.80
2018-04-15T09:49:47.999Z,50.70
2018-04-15T09:59:57.018Z,53.20
2018-04-15T10:10:04.552Z,56.50
2018-04-15T10:25:16.909Z,58.30
2018-04-15T10:30:21.141Z,60.50
2018-04-15T10:35:24.989Z,63.30
2018-04-15T10:40:28.091Z,60.80
2018-04-15T10:45:31.172Z,59.80
2018-04-15T10:50:35.036Z,61.40
2018-04-15T10:55:38.505Z,64.60
2018-04-15T11:05:47.161Z,65.50
2018-04-15T11:10:51.010Z,64.90
2018-04-15T11:15:55.221Z,61.50
2018-04-15T11:20:58.354Z,62.80
2018-04-15T11:26:02.223Z,64.30
2018-04-15T11:31:06.455Z,61.80
2018-04-15T11:36:10.318Z,60.70
2018-04-15T11:46:17.855Z,62.00
2018-04-15T11:51:21.347Z,62.60
2018-04-15T11:56:24.431Z,62.60
2018-04-15T12:01:27.894Z,62.30
2018-04-15T12:06:30.974Z,59.10
2018-04-15T12:16:39.994Z,59.30
2018-04-15T12:21:43.085Z,60.10
2018-04-15T12:26:46.223Z,60.50
2018-04-15T12:31:49.255Z,60.60
2018-04-15T12:36:52.738Z,59.50
2018-04-15T12:41:57.325Z,61.20
2018-04-15T12:47:00.422Z,61.20
2018-04-15T12:57:08.714Z,61.70
2018-04-15T13:02:12.561Z,61.50
2018-04-15T13:07:15.657Z,61.60
2018-04-15T13:12:18.740Z,61.90
2018-04-15T13:17:22.577Z,61.60
2018-04-15T13:22:25.670Z,59.40
2018-04-15T13:27:29.513Z,60.50
2018-04-15T13:32:33.725Z,59.80
2018-04-15T13:37:37.573Z,61.10
2018-04-15T13:42:41.418Z,62.20
2018-04-15T13:47:45.642Z,60.00
2018-04-15T13:52:48.747Z,59.60
2018-04-15T13:57:52.590Z,59.60
2018-04-15T14:02:55.666Z,59.50
2018-04-15T14:07:58.743Z,59.80
2018-04-15T14:13:02.595Z,59.70
2018-04-15T14:18:06.821Z,58.10
2018-04-15T14:23:10.294Z,58.70
2018-04-15T14:28:14.886Z,56.50
2018-04-15T14:33:17.973Z,56.60
2018-04-15T14:38:21.059Z,56.40
2018-04-15T14:53:33.413Z,56.10
2018-04-15T14:58:36.493Z,56.70
2018-04-15T15:03:40.335Z,56.40
2018-04-15T15:08:43.426Z,54.40
2018-04-15T15:13:46.510Z,54.60
2018-04-15T15:18:50.743Z,55.20
2018-04-15T15:23:54.590Z,57.50
2018-04-15T15:28:57.682Z,56.30
2018-04-15T15:39:06.801Z,54.40
2018-04-15T15:44:09.890Z,55.70
2018-04-15T15:49:13.363Z,56.90
2018-04-15T15:54:16.459Z,56.80
2018-04-15T15:59:19.542Z,55.50
2018-04-15T16:04:24.153Z,55.40
2018-04-15T16:09:28.003Z,54.90
2018-04-15T16:14:31.094Z,55.40
2018-04-15T16:19:34.179Z,55.30
2018-04-15T16:29:42.136Z,55.90
2018-04-15T16:34:46.370Z,57.00
2018-04-15T16:39:50.960Z,56.50
2018-04-15T16:44:55.169Z,56.90
2018-04-15T16:55:03.470Z,57.60
2018-04-15T17:00:08.207Z,58.40
2018-04-15T17:05:11.210Z,58.70
2018-04-15T17:10:14.289Z,59.30
2018-04-15T17:15:17.365Z,61.80
2018-04-15T17:20:21.219Z,66.10
2018-04-15T17:30:25.536Z,64.40
2018-04-15T17:35:29.374Z,65.80
2018-04-15T17:40:32.446Z,65.40
2018-04-15T17:45:35.522Z,66.10
2018-04-15T17:50:38.994Z,65.40
2018-04-15T18:00:47.269Z,65.30
2018-04-15T18:05:50.342Z,66.00
2018-04-15T18:10:54.553Z,67.10
2018-04-15T18:15:58.398Z,69.80
2018-04-15T18:21:01.512Z,69.50
2018-04-15T18:26:04.595Z,71.80
2018-04-15T18:31:08.098Z,72.90
2018-04-15T18:36:12.738Z,74.40
2018-04-15T18:46:21.019Z,78.00
2018-04-15T18:51:24.486Z,76.80
2018-04-15T18:56:28.326Z,80.50
2018-04-15T19:01:31.414Z,80.50
2018-04-15T19:16:44.486Z,81.80
2018-04-15T19:21:49.191Z,82.00
2018-04-15T19:26:57.952Z,83.90
2018-04-15T19:32:01.856Z,86.00
2018-04-15T19:37:05.822Z,86.70
2018-04-15T19:42:09.389Z,86.70
2018-04-15T19:47:12.627Z,87.20
2018-04-15T19:52:16.572Z,88.20
2018-04-15T19:57:19.715Z,88.10
2018-04-15T20:02:22.959Z,88.20
2018-04-15T20:07:26.150Z,88.00
2018-04-15T20:12:29.284Z,88.40
2018-04-15T20:17:33.211Z,90.20
2018-04-15T20:22:37.150Z,89.00
2018-04-15T20:27:42.449Z,90.10
2018-04-15T20:32:45.527Z,89.20
2018-04-15T20:37:48.796Z,90.00
2018-04-15T20:42:52.047Z,90.30
2018-04-15T20:53:00.163Z,90.50
2018-04-15T20:58:04.025Z,90.40
2018-04-15T21:03:07.267Z,90.80
2018-04-15T21:08:10.411Z,90.40
2018-04-15T21:13:14.502Z,90.50
2018-04-15T21:18:17.639Z,90.80
2018-04-15T21:23:20.821Z,91.10
2018-04-15T21:28:24.093Z,91.20
2018-04-15T21:33:28.060Z,91.30
2018-04-15T21:38:31.611Z,91.20
2018-04-15T21:43:35.189Z,91.20
2018-04-15T21:48:38.354Z,91.50
2018-04-15T21:53:42.266Z,91.60
2018-04-15T21:58:45.399Z,91.60
2018-04-15T22:03:49.279Z,91.60
2018-04-15T22:08:52.374Z,91.30
2018-04-15T22:13:55.482Z,91.30
2018-04-15T22:18:59.707Z,91.40
2018-04-15T22:24:03.715Z,91.30
2018-04-15T22:34:11.433Z,91.80
2018-04-15T22:39:14.620Z,92.00
2018-04-15T22:44:17.859Z,91.90
2018-04-15T22:49:22.919Z,91.90
2018-04-15T22:54:26.074Z,91.90
2018-04-15T22:59:29.297Z,92.00
2018-04-15T23:04:32.480Z,92.10
2018-04-15T23:09:35.621Z,92.30
2018-04-15T23:14:38.831Z,92.20
2018-04-15T23:19:42.845Z,91.90
2018-04-15T23:24:46.069Z,92.20
2018-04-15T23:29:49.279Z,92.20
2018-04-15T23:34:52.465Z,92.30
2018-04-15T23:39:55.746Z,92.30
2018-04-15T23:50:04.126Z,92.50
2018-04-15T23:55:08.464Z,92.60
